sensor_id;sensor_type;location;lat;lon;timestamp;P1;durP1;ratioP1;P2;durP2;ratioP2
20671;SDS011;10495;50.922;4.760;2023-01-19T00:00:11;16.80;;;11.53;;
20671;SDS011;10495;50.922;4.760;2023-01-19T00:02:39;20.97;;;12.07;;
20671;SDS011;10495;50.922;4.760;2023-01-19T00:05:06;17.80;;;11.80;;
20671;SDS011;10495;50.922;4.760;2023-01-19T00:07:31;17.13;;;11.50;;
20671;SDS011;10495;50.922;4.760;2023-01-19T00:09:57;19.10;;;11.23;;
20671;SDS011;10495;50.922;4.760;2023-01-19T00:12:23;15.00;;;10.97;;
20671;SDS011;10495;50.922;4.760;2023-01-19T00:14:49;18.17;;;11.80;;
20671;SDS011;10495;50.922;4.760;2023-01-19T00:17:15;18.70;;;12.20;;
20671;SDS011;10495;50.922;4.760;2023-01-19T00:19:40;18.53;;;11.97;;
20671;SDS011;10495;50.922;4.760;2023-01-19T00:22:06;18.73;;;11.90;;
20671;SDS011;10495;50.922;4.760;2023-01-19T00:24:32;19.70;;;11.90;;
20671;SDS011;10495;50.922;4.760;2023-01-19T00:26:57;19.13;;;11.67;;
20671;SDS011;10495;50.922;4.760;2023-01-19T00:29:23;20.63;;;12.37;;
20671;SDS011;10495;50.922;4.760;2023-01-19T00:31:49;22.83;;;13.07;;
20671;SDS011;10495;50.922;4.760;2023-01-19T00:34:15;17.33;;;11.50;;
20671;SDS011;10495;50.922;4.760;2023-01-19T00:36:41;18.70;;;12.73;;
20671;SDS011;10495;50.922;4.760;2023-01-19T00:39:07;21.63;;;13.03;;
20671;SDS011;10495;50.922;4.760;2023-01-19T00:41:33;19.70;;;12.27;;
20671;SDS011;10495;50.922;4.760;2023-01-19T00:44:17;19.00;;;12.47;;
20671;SDS011;10495;50.922;4.760;2023-01-19T00:46:43;17.03;;;11.30;;
20671;SDS011;10495;50.922;4.760;2023-01-19T00:49:08;17.10;;;12.00;;
20671;SDS011;10495;50.922;4.760;2023-01-19T00:51:34;19.77;;;11.50;;
20671;SDS011;10495;50.922;4.760;2023-01-19T00:53:59;19.27;;;12.43;;
20671;SDS011;10495;50.922;4.760;2023-01-19T00:56:29;19.40;;;12.07;;
20671;SDS011;10495;50.922;4.760;2023-01-19T00:58:55;17.90;;;11.47;;
20671;SDS011;10495;50.922;4.760;2023-01-19T01:01:20;19.67;;;12.03;;
20671;SDS011;10495;50.922;4.760;2023-01-19T01:03:46;17.83;;;11.37;;
20671;SDS011;10495;50.922;4.760;2023-01-19T01:06:11;18.57;;;11.20;;
20671;SDS011;10495;50.922;4.760;2023-01-19T01:08:37;22.07;;;12.30;;
20671;SDS011;10495;50.922;4.760;2023-01-19T01:11:03;21.13;;;12.83;;
20671;SDS011;10495;50.922;4.760;2023-01-19T01:13:28;17.97;;;11.67;;
20671;SDS011;10495;50.922;4.760;2023-01-19T01:15:54;17.10;;;12.10;;
20671;SDS011;10495;50.922;4.760;2023-01-19T01:18:21;18.40;;;11.20;;
20671;SDS011;10495;50.922;4.760;2023-01-19T01:20:46;20.97;;;12.30;;
20671;SDS011;10495;50.922;4.760;2023-01-19T01:23:12;19.30;;;12.53;;
20671;SDS011;10495;50.922;4.760;2023-01-19T01:25:38;20.13;;;12.80;;
20671;SDS011;10495;50.922;4.760;2023-01-19T01:28:04;16.23;;;10.23;;
20671;SDS011;10495;50.922;4.760;2023-01-19T01:30:33;18.63;;;11.53;;
20671;SDS011;10495;50.922;4.760;2023-01-19T01:32:59;20.60;;;12.07;;
20671;SDS011;10495;50.922;4.760;2023-01-19T01:35:25;20.53;;;11.90;;
20671;SDS011;10495;50.922;4.760;2023-01-19T01:37:51;22.67;;;12.93;;
20671;SDS011;10495;50.922;4.760;2023-01-19T01:40:18;21.93;;;12.70;;
20671;SDS011;10495;50.922;4.760;2023-01-19T01:42:44;20.23;;;13.17;;
20671;SDS011;10495;50.922;4.760;2023-01-19T01:45:30;16.90;;;11.80;;
20671;SDS011;10495;50.922;4.760;2023-01-19T01:47:59;22.00;;;13.03;;
20671;SDS011;10495;50.922;4.760;2023-01-19T01:50:27;20.83;;;12.57;;
20671;SDS011;10495;50.922;4.760;2023-01-19T01:53:01;20.60;;;12.80;;
20671;SDS011;10495;50.922;4.760;2023-01-19T01:55:32;20.60;;;12.83;;
20671;SDS011;10495;50.922;4.760;2023-01-19T01:58:05;20.37;;;12.03;;
20671;SDS011;10495;50.922;4.760;2023-01-19T02:00:34;21.00;;;11.87;;
20671;SDS011;10495;50.922;4.760;2023-01-19T02:03:20;21.77;;;13.00;;
20671;SDS011;10495;50.922;4.760;2023-01-19T02:05:47;20.20;;;12.67;;
20671;SDS011;10495;50.922;4.760;2023-01-19T02:08:24;23.33;;;12.13;;
20671;SDS011;10495;50.922;4.760;2023-01-19T02:11:09;21.93;;;11.87;;
20671;SDS011;10495;50.922;4.760;2023-01-19T02:13:54;23.97;;;11.70;;
20671;SDS011;10495;50.922;4.760;2023-01-19T02:16:20;22.43;;;12.27;;
20671;SDS011;10495;50.922;4.760;2023-01-19T02:18:45;19.63;;;11.70;;
20671;SDS011;10495;50.922;4.760;2023-01-19T02:21:12;21.17;;;11.77;;
20671;SDS011;10495;50.922;4.760;2023-01-19T02:23:45;19.73;;;11.37;;
20671;SDS011;10495;50.922;4.760;2023-01-19T02:29:09;17.60;;;10.70;;
20671;SDS011;10495;50.922;4.760;2023-01-19T02:31:37;22.53;;;11.33;;
20671;SDS011;10495;50.922;4.760;2023-01-19T02:34:04;17.67;;;10.33;;
20671;SDS011;10495;50.922;4.760;2023-01-19T02:36:39;17.63;;;11.13;;
20671;SDS011;10495;50.922;4.760;2023-01-19T02:39:17;21.13;;;11.00;;
20671;SDS011;10495;50.922;4.760;2023-01-19T02:41:52;17.50;;;11.17;;
20671;SDS011;10495;50.922;4.760;2023-01-19T02:44:23;20.13;;;11.10;;
20671;SDS011;10495;50.922;4.760;2023-01-19T02:46:51;17.53;;;10.87;;
20671;SDS011;10495;50.922;4.760;2023-01-19T02:49:18;18.30;;;11.00;;
20671;SDS011;10495;50.922;4.760;2023-01-19T02:51:43;20.77;;;11.37;;
20671;SDS011;10495;50.922;4.760;2023-01-19T02:54:22;20.87;;;10.73;;
20671;SDS011;10495;50.922;4.760;2023-01-19T02:57:17;17.73;;;9.93;;
20671;SDS011;10495;50.922;4.760;2023-01-19T02:59:47;18.13;;;10.73;;
20671;SDS011;10495;50.922;4.760;2023-01-19T03:03:14;21.03;;;10.50;;
20671;SDS011;10495;50.922;4.760;2023-01-19T03:05:32;21.57;;;11.20;;
20671;SDS011;10495;50.922;4.760;2023-01-19T03:08:20;19.77;;;12.10;;
20671;SDS011;10495;50.922;4.760;2023-01-19T03:10:50;18.10;;;11.13;;
20671;SDS011;10495;50.922;4.760;2023-01-19T03:13:39;22.43;;;11.63;;
20671;SDS011;10495;50.922;4.760;2023-01-19T03:18:32;18.10;;;11.30;;
20671;SDS011;10495;50.922;4.760;2023-01-19T03:21:01;17.30;;;10.10;;
20671;SDS011;10495;50.922;4.760;2023-01-19T03:23:30;15.87;;;10.07;;
20671;SDS011;10495;50.922;4.760;2023-01-19T03:25:57;21.97;;;11.43;;
20671;SDS011;10495;50.922;4.760;2023-01-19T03:28:25;20.67;;;10.53;;
20671;SDS011;10495;50.922;4.760;2023-01-19T03:30:56;16.13;;;9.97;;
20671;SDS011;10495;50.922;4.760;2023-01-19T03:33:28;20.53;;;10.63;;
20671;SDS011;10495;50.922;4.760;2023-01-19T03:35:57;22.53;;;11.27;;
20671;SDS011;10495;50.922;4.760;2023-01-19T03:38:30;15.30;;;10.10;;
20671;SDS011;10495;50.922;4.760;2023-01-19T03:41:01;18.87;;;9.83;;
20671;SDS011;10495;50.922;4.760;2023-01-19T03:43:29;15.33;;;9.90;;
20671;SDS011;10495;50.922;4.760;2023-01-19T03:45:56;14.43;;;8.90;;
20671;SDS011;10495;50.922;4.760;2023-01-19T03:48:23;16.13;;;9.83;;
20671;SDS011;10495;50.922;4.760;2023-01-19T03:50:49;18.07;;;10.40;;
20671;SDS011;10495;50.922;4.760;2023-01-19T03:53:16;15.67;;;9.37;;
20671;SDS011;10495;50.922;4.760;2023-01-19T03:55:45;16.33;;;10.23;;
20671;SDS011;10495;50.922;4.760;2023-01-19T03:58:12;16.63;;;9.43;;
20671;SDS011;10495;50.922;4.760;2023-01-19T04:00:38;17.97;;;9.60;;
20671;SDS011;10495;50.922;4.760;2023-01-19T04:03:04;16.40;;;9.90;;
20671;SDS011;10495;50.922;4.760;2023-01-19T04:05:31;17.30;;;10.50;;
20671;SDS011;10495;50.922;4.760;2023-01-19T04:07:57;14.43;;;8.63;;
20671;SDS011;10495;50.922;4.760;2023-01-19T04:10:22;15.93;;;9.30;;
20671;SDS011;10495;50.922;4.760;2023-01-19T04:12:48;17.67;;;10.07;;
20671;SDS011;10495;50.922;4.760;2023-01-19T04:15:14;15.90;;;9.17;;
20671;SDS011;10495;50.922;4.760;2023-01-19T04:17:40;15.17;;;8.53;;
20671;SDS011;10495;50.922;4.760;2023-01-19T04:20:06;15.90;;;9.13;;
20671;SDS011;10495;50.922;4.760;2023-01-19T04:22:33;19.43;;;10.07;;
20671;SDS011;10495;50.922;4.760;2023-01-19T04:24:59;16.73;;;9.87;;
20671;SDS011;10495;50.922;4.760;2023-01-19T04:27:24;16.27;;;8.97;;
20671;SDS011;10495;50.922;4.760;2023-01-19T04:29:50;15.90;;;9.57;;
20671;SDS011;10495;50.922;4.760;2023-01-19T04:32:16;23.90;;;12.10;;
20671;SDS011;10495;50.922;4.760;2023-01-19T04:34:42;23.20;;;10.90;;
20671;SDS011;10495;50.922;4.760;2023-01-19T04:37:08;19.70;;;10.90;;
20671;SDS011;10495;50.922;4.760;2023-01-19T04:39:34;16.70;;;10.50;;
20671;SDS011;10495;50.922;4.760;2023-01-19T04:41:59;16.33;;;10.93;;
20671;SDS011;10495;50.922;4.760;2023-01-19T04:44:25;19.57;;;11.10;;
20671;SDS011;10495;50.922;4.760;2023-01-19T04:46:52;19.23;;;10.43;;
20671;SDS011;10495;50.922;4.760;2023-01-19T04:49:18;18.67;;;10.27;;
20671;SDS011;10495;50.922;4.760;2023-01-19T04:51:43;17.40;;;10.57;;
20671;SDS011;10495;50.922;4.760;2023-01-19T04:54:09;20.13;;;11.53;;
20671;SDS011;10495;50.922;4.760;2023-01-19T04:56:35;19.33;;;11.17;;
20671;SDS011;10495;50.922;4.760;2023-01-19T04:59:01;19.83;;;10.37;;
20671;SDS011;10495;50.922;4.760;2023-01-19T05:01:27;19.47;;;11.00;;
20671;SDS011;10495;50.922;4.760;2023-01-19T05:03:52;21.60;;;10.73;;
20671;SDS011;10495;50.922;4.760;2023-01-19T05:06:18;18.90;;;11.77;;
20671;SDS011;10495;50.922;4.760;2023-01-19T05:08:43;19.87;;;11.00;;
20671;SDS011;10495;50.922;4.760;2023-01-19T05:11:09;21.30;;;10.67;;
20671;SDS011;10495;50.922;4.760;2023-01-19T05:13:35;19.00;;;11.50;;
20671;SDS011;10495;50.922;4.760;2023-01-19T05:16:00;21.33;;;11.43;;
20671;SDS011;10495;50.922;4.760;2023-01-19T05:18:26;23.57;;;11.67;;
20671;SDS011;10495;50.922;4.760;2023-01-19T05:20:52;18.80;;;10.30;;
20671;SDS011;10495;50.922;4.760;2023-01-19T05:23:17;23.33;;;11.07;;
20671;SDS011;10495;50.922;4.760;2023-01-19T05:25:43;19.97;;;11.70;;
20671;SDS011;10495;50.922;4.760;2023-01-19T05:28:09;22.77;;;12.47;;
20671;SDS011;10495;50.922;4.760;2023-01-19T05:30:35;22.83;;;13.33;;
20671;SDS011;10495;50.922;4.760;2023-01-19T05:33:01;23.27;;;12.93;;
20671;SDS011;10495;50.922;4.760;2023-01-19T05:35:27;20.20;;;12.03;;
20671;SDS011;10495;50.922;4.760;2023-01-19T05:37:52;21.63;;;12.27;;
20671;SDS011;10495;50.922;4.760;2023-01-19T05:40:18;18.93;;;11.50;;
20671;SDS011;10495;50.922;4.760;2023-01-19T05:42:43;25.27;;;13.33;;
20671;SDS011;10495;50.922;4.760;2023-01-19T05:45:09;20.40;;;12.47;;
20671;SDS011;10495;50.922;4.760;2023-01-19T05:47:36;27.23;;;13.00;;
20671;SDS011;10495;50.922;4.760;2023-01-19T05:50:02;24.73;;;13.37;;
20671;SDS011;10495;50.922;4.760;2023-01-19T05:52:28;25.17;;;13.80;;
20671;SDS011;10495;50.922;4.760;2023-01-19T05:54:54;26.40;;;13.60;;
20671;SDS011;10495;50.922;4.760;2023-01-19T05:57:19;26.93;;;14.17;;
20671;SDS011;10495;50.922;4.760;2023-01-19T05:59:46;26.20;;;13.70;;
20671;SDS011;10495;50.922;4.760;2023-01-19T06:02:12;25.20;;;14.33;;
20671;SDS011;10495;50.922;4.760;2023-01-19T06:04:37;23.53;;;13.57;;
20671;SDS011;10495;50.922;4.760;2023-01-19T06:07:03;25.93;;;14.77;;
20671;SDS011;10495;50.922;4.760;2023-01-19T06:09:30;30.53;;;14.77;;
20671;SDS011;10495;50.922;4.760;2023-01-19T06:11:56;26.63;;;14.17;;
20671;SDS011;10495;50.922;4.760;2023-01-19T06:14:23;28.43;;;14.27;;
20671;SDS011;10495;50.922;4.760;2023-01-19T06:16:49;28.17;;;14.47;;
20671;SDS011;10495;50.922;4.760;2023-01-19T06:19:15;27.70;;;14.07;;
20671;SDS011;10495;50.922;4.760;2023-01-19T06:21:40;29.37;;;14.33;;
20671;SDS011;10495;50.922;4.760;2023-01-19T06:24:06;26.20;;;13.90;;
20671;SDS011;10495;50.922;4.760;2023-01-19T06:26:33;22.33;;;13.50;;
20671;SDS011;10495;50.922;4.760;2023-01-19T06:28:58;24.70;;;13.60;;
20671;SDS011;10495;50.922;4.760;2023-01-19T06:31:24;24.97;;;14.80;;
20671;SDS011;10495;50.922;4.760;2023-01-19T06:33:50;24.83;;;15.40;;
20671;SDS011;10495;50.922;4.760;2023-01-19T06:36:15;28.20;;;14.03;;
20671;SDS011;10495;50.922;4.760;2023-01-19T06:38:41;23.03;;;12.97;;
20671;SDS011;10495;50.922;4.760;2023-01-19T06:41:06;26.13;;;13.00;;
20671;SDS011;10495;50.922;4.760;2023-01-19T06:43:32;27.27;;;14.70;;
20671;SDS011;10495;50.922;4.760;2023-01-19T06:45:58;29.17;;;14.30;;
20671;SDS011;10495;50.922;4.760;2023-01-19T06:48:26;30.70;;;14.10;;
20671;SDS011;10495;50.922;4.760;2023-01-19T06:50:52;24.33;;;14.67;;
20671;SDS011;10495;50.922;4.760;2023-01-19T06:53:18;27.90;;;14.57;;
20671;SDS011;10495;50.922;4.760;2023-01-19T06:55:46;25.87;;;14.87;;
20671;SDS011;10495;50.922;4.760;2023-01-19T06:58:11;24.00;;;13.33;;
20671;SDS011;10495;50.922;4.760;2023-01-19T07:00:37;24.60;;;14.53;;
20671;SDS011;10495;50.922;4.760;2023-01-19T07:03:06;24.47;;;13.77;;
20671;SDS011;10495;50.922;4.760;2023-01-19T07:05:33;28.50;;;14.13;;
20671;SDS011;10495;50.922;4.760;2023-01-19T07:07:59;23.37;;;14.57;;
20671;SDS011;10495;50.922;4.760;2023-01-19T07:10:25;27.37;;;15.00;;
20671;SDS011;10495;50.922;4.760;2023-01-19T07:12:51;27.70;;;14.30;;
20671;SDS011;10495;50.922;4.760;2023-01-19T07:15:17;25.50;;;13.43;;
20671;SDS011;10495;50.922;4.760;2023-01-19T07:17:44;25.87;;;13.63;;
20671;SDS011;10495;50.922;4.760;2023-01-19T07:20:10;26.60;;;13.77;;
20671;SDS011;10495;50.922;4.760;2023-01-19T07:22:38;27.03;;;14.40;;
20671;SDS011;10495;50.922;4.760;2023-01-19T07:25:05;28.10;;;14.17;;
20671;SDS011;10495;50.922;4.760;2023-01-19T07:27:30;27.97;;;15.30;;
20671;SDS011;10495;50.922;4.760;2023-01-19T07:29:56;26.27;;;14.60;;
20671;SDS011;10495;50.922;4.760;2023-01-19T07:32:21;31.47;;;15.43;;
20671;SDS011;10495;50.922;4.760;2023-01-19T07:34:47;26.80;;;13.77;;
20671;SDS011;10495;50.922;4.760;2023-01-19T07:37:13;26.93;;;13.50;;
20671;SDS011;10495;50.922;4.760;2023-01-19T07:39:39;27.43;;;14.73;;
20671;SDS011;10495;50.922;4.760;2023-01-19T07:42:04;25.93;;;13.63;;
20671;SDS011;10495;50.922;4.760;2023-01-19T07:44:31;27.70;;;14.93;;
20671;SDS011;10495;50.922;4.760;2023-01-19T07:46:56;24.63;;;13.23;;
20671;SDS011;10495;50.922;4.760;2023-01-19T07:49:22;24.20;;;13.57;;
20671;SDS011;10495;50.922;4.760;2023-01-19T07:51:48;22.83;;;13.03;;
20671;SDS011;10495;50.922;4.760;2023-01-19T07:54:14;21.60;;;12.83;;
20671;SDS011;10495;50.922;4.760;2023-01-19T07:56:39;29.87;;;14.50;;
20671;SDS011;10495;50.922;4.760;2023-01-19T07:59:05;27.40;;;13.67;;
20671;SDS011;10495;50.922;4.760;2023-01-19T08:01:33;24.00;;;13.67;;
20671;SDS011;10495;50.922;4.760;2023-01-19T08:03:59;20.13;;;12.87;;
20671;SDS011;10495;50.922;4.760;2023-01-19T08:06:34;24.40;;;14.40;;
20671;SDS011;10495;50.922;4.760;2023-01-19T08:09:02;25.70;;;14.43;;
20671;SDS011;10495;50.922;4.760;2023-01-19T08:11:31;31.97;;;14.53;;
20671;SDS011;10495;50.922;4.760;2023-01-19T08:13:57;27.13;;;13.40;;
20671;SDS011;10495;50.922;4.760;2023-01-19T08:16:23;25.73;;;15.03;;
20671;SDS011;10495;50.922;4.760;2023-01-19T08:18:49;25.83;;;13.37;;
20671;SDS011;10495;50.922;4.760;2023-01-19T08:21:15;27.97;;;14.50;;
20671;SDS011;10495;50.922;4.760;2023-01-19T08:23:41;28.97;;;15.40;;
20671;SDS011;10495;50.922;4.760;2023-01-19T08:26:19;23.40;;;13.47;;
20671;SDS011;10495;50.922;4.760;2023-01-19T08:28:53;28.90;;;14.57;;
20671;SDS011;10495;50.922;4.760;2023-01-19T08:31:20;25.80;;;13.80;;
20671;SDS011;10495;50.922;4.760;2023-01-19T08:33:46;31.47;;;15.33;;
20671;SDS011;10495;50.922;4.760;2023-01-19T08:36:11;26.07;;;13.67;;
20671;SDS011;10495;50.922;4.760;2023-01-19T08:38:37;28.93;;;13.07;;
20671;SDS011;10495;50.922;4.760;2023-01-19T08:41:07;32.43;;;14.97;;
20671;SDS011;10495;50.922;4.760;2023-01-19T08:43:33;25.83;;;14.63;;
20671;SDS011;10495;50.922;4.760;2023-01-19T08:45:59;35.60;;;14.63;;
20671;SDS011;10495;50.922;4.760;2023-01-19T08:48:24;26.43;;;14.07;;
20671;SDS011;10495;50.922;4.760;2023-01-19T08:50:50;25.97;;;14.27;;
20671;SDS011;10495;50.922;4.760;2023-01-19T08:53:17;25.57;;;13.07;;
20671;SDS011;10495;50.922;4.760;2023-01-19T08:55:44;24.50;;;14.00;;
20671;SDS011;10495;50.922;4.760;2023-01-19T08:58:10;27.70;;;13.73;;
20671;SDS011;10495;50.922;4.760;2023-01-19T09:00:36;24.23;;;12.80;;
20671;SDS011;10495;50.922;4.760;2023-01-19T09:03:03;26.10;;;13.73;;
20671;SDS011;10495;50.922;4.760;2023-01-19T09:05:31;24.47;;;13.03;;
20671;SDS011;10495;50.922;4.760;2023-01-19T09:08:06;26.73;;;13.77;;
20671;SDS011;10495;50.922;4.760;2023-01-19T09:10:34;25.67;;;13.33;;
20671;SDS011;10495;50.922;4.760;2023-01-19T09:13:05;22.20;;;12.80;;
20671;SDS011;10495;50.922;4.760;2023-01-19T09:15:33;23.80;;;12.80;;
20671;SDS011;10495;50.922;4.760;2023-01-19T09:18:01;20.80;;;12.77;;
20671;SDS011;10495;50.922;4.760;2023-01-19T09:20:31;23.40;;;12.53;;
20671;SDS011;10495;50.922;4.760;2023-01-19T09:22:58;22.17;;;13.03;;
20671;SDS011;10495;50.922;4.760;2023-01-19T09:25:24;26.67;;;14.20;;
20671;SDS011;10495;50.922;4.760;2023-01-19T09:27:50;23.93;;;14.33;;
20671;SDS011;10495;50.922;4.760;2023-01-19T09:30:17;29.13;;;14.13;;
20671;SDS011;10495;50.922;4.760;2023-01-19T09:32:43;21.47;;;12.33;;
20671;SDS011;10495;50.922;4.760;2023-01-19T09:35:09;27.80;;;13.37;;
20671;SDS011;10495;50.922;4.760;2023-01-19T09:37:35;28.67;;;14.30;;
20671;SDS011;10495;50.922;4.760;2023-01-19T09:40:01;21.70;;;11.73;;
20671;SDS011;10495;50.922;4.760;2023-01-19T09:42:41;26.53;;;13.00;;
20671;SDS011;10495;50.922;4.760;2023-01-19T09:45:30;22.90;;;13.03;;
20671;SDS011;10495;50.922;4.760;2023-01-19T09:48:00;26.67;;;13.60;;
20671;SDS011;10495;50.922;4.760;2023-01-19T09:50:33;27.63;;;13.50;;
20671;SDS011;10495;50.922;4.760;2023-01-19T09:53:03;21.57;;;12.53;;
20671;SDS011;10495;50.922;4.760;2023-01-19T09:55:53;18.90;;;11.57;;
20671;SDS011;10495;50.922;4.760;2023-01-19T09:58:19;27.00;;;12.93;;
20671;SDS011;10495;50.922;4.760;2023-01-19T10:00:48;19.93;;;12.17;;
20671;SDS011;10495;50.922;4.760;2023-01-19T10:03:18;23.53;;;12.43;;
20671;SDS011;10495;50.922;4.760;2023-01-19T10:05:49;19.97;;;10.97;;
20671;SDS011;10495;50.922;4.760;2023-01-19T10:08:32;21.07;;;12.70;;
20671;SDS011;10495;50.922;4.760;2023-01-19T10:11:29;24.83;;;12.37;;
20671;SDS011;10495;50.922;4.760;2023-01-19T10:14:10;21.93;;;11.97;;
20671;SDS011;10495;50.922;4.760;2023-01-19T10:19:33;26.83;;;12.20;;
20671;SDS011;10495;50.922;4.760;2023-01-19T10:22:13;23.43;;;12.10;;
20671;SDS011;10495;50.922;4.760;2023-01-19T10:24:45;23.20;;;12.87;;
20671;SDS011;10495;50.922;4.760;2023-01-19T10:27:15;20.87;;;12.00;;
20671;SDS011;10495;50.922;4.760;2023-01-19T10:29:42;22.43;;;11.20;;
20671;SDS011;10495;50.922;4.760;2023-01-19T10:32:13;19.97;;;11.03;;
20671;SDS011;10495;50.922;4.760;2023-01-19T10:34:41;20.40;;;11.10;;
20671;SDS011;10495;50.922;4.760;2023-01-19T10:37:48;18.90;;;11.23;;
20671;SDS011;10495;50.922;4.760;2023-01-19T10:39:59;23.87;;;11.33;;
20671;SDS011;10495;50.922;4.760;2023-01-19T10:42:36;21.03;;;11.27;;
20671;SDS011;10495;50.922;4.760;2023-01-19T10:45:16;14.93;;;9.00;;
20671;SDS011;10495;50.922;4.760;2023-01-19T10:47:47;23.80;;;12.00;;
20671;SDS011;10495;50.922;4.760;2023-01-19T10:53:01;21.87;;;10.73;;
20671;SDS011;10495;50.922;4.760;2023-01-19T10:55:30;18.63;;;10.40;;
20671;SDS011;10495;50.922;4.760;2023-01-19T10:57:56;19.43;;;10.77;;
20671;SDS011;10495;50.922;4.760;2023-01-19T11:02:54;21.90;;;10.47;;
20671;SDS011;10495;50.922;4.760;2023-01-19T11:05:24;20.40;;;10.43;;
20671;SDS011;10495;50.922;4.760;2023-01-19T11:07:52;20.80;;;10.03;;
20671;SDS011;10495;50.922;4.760;2023-01-19T11:10:24;19.90;;;10.37;;
20671;SDS011;10495;50.922;4.760;2023-01-19T11:13:02;25.37;;;10.67;;
20671;SDS011;10495;50.922;4.760;2023-01-19T11:18:17;21.53;;;9.37;;
20671;SDS011;10495;50.922;4.760;2023-01-19T11:20:50;15.97;;;9.77;;
20671;SDS011;10495;50.922;4.760;2023-01-19T11:23:25;21.53;;;11.27;;
20671;SDS011;10495;50.922;4.760;2023-01-19T11:25:54;20.03;;;10.23;;
20671;SDS011;10495;50.922;4.760;2023-01-19T11:28:35;16.30;;;9.80;;
20671;SDS011;10495;50.922;4.760;2023-01-19T11:33:47;20.27;;;9.90;;
20671;SDS011;10495;50.922;4.760;2023-01-19T11:38:43;21.60;;;10.73;;
20671;SDS011;10495;50.922;4.760;2023-01-19T11:41:14;17.10;;;9.90;;
20671;SDS011;10495;50.922;4.760;2023-01-19T11:43:43;22.30;;;10.97;;
20671;SDS011;10495;50.922;4.760;2023-01-19T11:46:10;18.67;;;10.17;;
20671;SDS011;10495;50.922;4.760;2023-01-19T11:48:38;20.90;;;10.03;;
20671;SDS011;10495;50.922;4.760;2023-01-19T11:51:12;20.30;;;10.90;;
20671;SDS011;10495;50.922;4.760;2023-01-19T11:53:40;25.10;;;11.07;;
20671;SDS011;10495;50.922;4.760;2023-01-19T11:56:10;18.67;;;10.20;;
20671;SDS011;10495;50.922;4.760;2023-01-19T11:58:39;21.60;;;10.40;;
20671;SDS011;10495;50.922;4.760;2023-01-19T12:03:46;19.60;;;11.00;;
20671;SDS011;10495;50.922;4.760;2023-01-19T12:06:28;20.97;;;11.13;;
20671;SDS011;10495;50.922;4.760;2023-01-19T12:11:45;19.87;;;9.93;;
20671;SDS011;10495;50.922;4.760;2023-01-19T12:14:16;22.93;;;11.20;;
20671;SDS011;10495;50.922;4.760;2023-01-19T12:16:46;21.27;;;10.57;;
20671;SDS011;10495;50.922;4.760;2023-01-19T12:19:15;19.50;;;11.30;;
20671;SDS011;10495;50.922;4.760;2023-01-19T12:21:46;20.60;;;11.17;;
20671;SDS011;10495;50.922;4.760;2023-01-19T12:24:16;20.20;;;11.77;;
20671;SDS011;10495;50.922;4.760;2023-01-19T12:26:56;19.17;;;10.70;;
20671;SDS011;10495;50.922;4.760;2023-01-19T12:29:28;23.67;;;11.73;;
20671;SDS011;10495;50.922;4.760;2023-01-19T12:37:05;21.20;;;12.33;;
20671;SDS011;10495;50.922;4.760;2023-01-19T12:40:28;20.80;;;12.03;;
20671;SDS011;10495;50.922;4.760;2023-01-19T12:43:01;23.80;;;11.40;;
20671;SDS011;10495;50.922;4.760;2023-01-19T12:45:31;23.60;;;12.50;;
20671;SDS011;10495;50.922;4.760;2023-01-19T12:48:02;22.20;;;11.03;;
20671;SDS011;10495;50.922;4.760;2023-01-19T12:50:31;20.00;;;11.07;;
20671;SDS011;10495;50.922;4.760;2023-01-19T12:53:05;28.60;;;12.77;;
20671;SDS011;10495;50.922;4.760;2023-01-19T12:55:42;22.47;;;11.70;;
20671;SDS011;10495;50.922;4.760;2023-01-19T13:00:43;26.20;;;12.70;;
20671;SDS011;10495;50.922;4.760;2023-01-19T13:13:31;22.13;;;12.63;;
20671;SDS011;10495;50.922;4.760;2023-01-19T13:18:43;18.60;;;11.47;;
20671;SDS011;10495;50.922;4.760;2023-01-19T13:21:09;24.40;;;12.10;;
20671;SDS011;10495;50.922;4.760;2023-01-19T13:26:12;25.20;;;12.87;;
20671;SDS011;10495;50.922;4.760;2023-01-19T13:28:41;23.03;;;13.30;;
20671;SDS011;10495;50.922;4.760;2023-01-19T13:31:09;17.47;;;10.67;;
20671;SDS011;10495;50.922;4.760;2023-01-19T13:33:56;22.93;;;12.60;;
20671;SDS011;10495;50.922;4.760;2023-01-19T13:39:00;23.37;;;12.20;;
20671;SDS011;10495;50.922;4.760;2023-01-19T13:41:31;22.60;;;12.27;;
20671;SDS011;10495;50.922;4.760;2023-01-19T13:44:04;28.57;;;12.37;;
20671;SDS011;10495;50.922;4.760;2023-01-19T13:46:42;23.43;;;13.10;;
20671;SDS011;10495;50.922;4.760;2023-01-19T13:49:16;22.97;;;11.63;;
20671;SDS011;10495;50.922;4.760;2023-01-19T13:52:03;25.03;;;12.00;;
20671;SDS011;10495;50.922;4.760;2023-01-19T13:54:28;22.83;;;11.90;;
20671;SDS011;10495;50.922;4.760;2023-01-19T13:56:54;20.50;;;11.10;;
20671;SDS011;10495;50.922;4.760;2023-01-19T13:59:19;18.33;;;10.77;;
20671;SDS011;10495;50.922;4.760;2023-01-19T14:01:45;22.17;;;11.50;;
20671;SDS011;10495;50.922;4.760;2023-01-19T14:04:25;24.20;;;11.60;;
20671;SDS011;10495;50.922;4.760;2023-01-19T14:07:10;22.20;;;10.97;;
20671;SDS011;10495;50.922;4.760;2023-01-19T14:09:47;23.90;;;12.03;;
20671;SDS011;10495;50.922;4.760;2023-01-19T14:12:25;19.40;;;10.93;;
20671;SDS011;10495;50.922;4.760;2023-01-19T14:14:51;19.83;;;11.17;;
20671;SDS011;10495;50.922;4.760;2023-01-19T14:17:27;19.60;;;11.03;;
20671;SDS011;10495;50.922;4.760;2023-01-19T14:19:57;20.07;;;9.90;;
20671;SDS011;10495;50.922;4.760;2023-01-19T14:22:40;15.77;;;9.33;;
20671;SDS011;10495;50.922;4.760;2023-01-19T14:25:26;15.37;;;9.13;;
20671;SDS011;10495;50.922;4.760;2023-01-19T14:30:57;15.63;;;8.83;;
20671;SDS011;10495;50.922;4.760;2023-01-19T14:33:31;17.77;;;10.67;;
20671;SDS011;10495;50.922;4.760;2023-01-19T14:38:48;15.00;;;9.43;;
20671;SDS011;10495;50.922;4.760;2023-01-19T14:43:50;14.70;;;8.23;;
20671;SDS011;10495;50.922;4.760;2023-01-19T14:46:16;17.67;;;9.63;;
20671;SDS011;10495;50.922;4.760;2023-01-19T14:48:49;13.03;;;9.13;;
20671;SDS011;10495;50.922;4.760;2023-01-19T14:51:18;19.27;;;10.30;;
20671;SDS011;10495;50.922;4.760;2023-01-19T14:53:46;16.53;;;9.13;;
20671;SDS011;10495;50.922;4.760;2023-01-19T14:56:29;18.17;;;10.37;;
20671;SDS011;10495;50.922;4.760;2023-01-19T14:58:57;17.63;;;9.80;;
20671;SDS011;10495;50.922;4.760;2023-01-19T15:01:25;17.87;;;10.23;;
20671;SDS011;10495;50.922;4.760;2023-01-19T15:03:55;22.63;;;11.10;;
20671;SDS011;10495;50.922;4.760;2023-01-19T15:06:21;17.60;;;10.17;;
20671;SDS011;10495;50.922;4.760;2023-01-19T15:08:49;16.90;;;10.20;;
20671;SDS011;10495;50.922;4.760;2023-01-19T15:11:24;13.67;;;8.93;;
20671;SDS011;10495;50.922;4.760;2023-01-19T15:14:00;17.23;;;9.47;;
20671;SDS011;10495;50.922;4.760;2023-01-19T15:16:26;17.97;;;9.87;;
20671;SDS011;10495;50.922;4.760;2023-01-19T15:18:54;21.23;;;11.07;;
20671;SDS011;10495;50.922;4.760;2023-01-19T15:21:20;17.77;;;10.47;;
20671;SDS011;10495;50.922;4.760;2023-01-19T15:23:52;19.00;;;9.43;;
20671;SDS011;10495;50.922;4.760;2023-01-19T15:26:20;18.20;;;10.60;;
20671;SDS011;10495;50.922;4.760;2023-01-19T15:28:47;25.07;;;11.00;;
20671;SDS011;10495;50.922;4.760;2023-01-19T15:31:14;15.43;;;9.87;;
20671;SDS011;10495;50.922;4.760;2023-01-19T15:33:45;18.87;;;11.20;;
20671;SDS011;10495;50.922;4.760;2023-01-19T15:36:14;17.23;;;10.10;;